Time;durP1;ratioP1;P1;durP2;ratioP2;P2;SDS_P1;SDS_P2;PMS_P1;PMS_P2;Temp;Humidity;BMP_temperature;BMP_pressure;BME280_temperature;BME280_humidity;BME280_pressure;Samples;Min_cycle;Max_cycle;Signal;HPM_P1;HPM_P2
2021/03/11 00:01:58;;;;;;;;;;;;;;;26.58;23.10;100696.50;5076066;28;803;-37
2021/03/11 00:04:23;;;;;;;;;;;;;;;26.67;22.95;100693.72;5076822;28;764;-37
2021/03/11 00:06:48;;;;;;;;;;;;;;;26.59;23.07;100687.38;5076507;28;866;-37
2021/03/11 00:09:14;;;;;;;;;;;;;;;27.13;22.52;100690.13;5081561;28;948;-37
2021/03/11 00:11:39;;;;;;;;;;;;;;;27.25;22.15;100680.56;5096738;28;807;-37
2021/03/11 00:14:04;;;;;;;;;;;;;;;26.55;22.80;100677.13;5096764;28;1988;-37
2021/03/11 00:16:29;;;;;;;;;;;;;;;26.03;23.56;100678.47;5095954;28;752;-36
2021/03/11 00:18:55;;;;;;;;;;;;;;;26.20;23.48;100682.91;5096707;28;751;-36
2021/03/11 00:21:23;;;;;;;;;;;;;;;25.66;24.24;100671.91;5096544;28;747;-36
2021/03/11 00:23:48;;;;;;;;;;;;;;;26.75;23.06;100669.38;5093414;28;955;-37
2021/03/11 00:26:14;;;;;;;;;;;;;;;27.20;22.31;100677.56;5076328;28;767;-36
2021/03/11 00:28:39;;;;;;;;;;;;;;;27.22;22.22;100674.69;5076256;28;851;-37
2021/03/11 00:31:04;;;;;;;;;;;;;;;27.34;21.89;100683.16;5075774;28;1076;-37
2021/03/11 00:33:30;;;;;;;;;;;;;;;27.25;22.11;100680.56;5076466;28;1175;-36
2021/03/11 00:35:55;;;;;;;;;;;;;;;27.29;21.83;100680.19;5096082;28;1909;-37
2021/03/11 00:38:20;;;;;;;;;;;;;;;26.15;23.21;100684.28;5096112;28;752;-37
2021/03/11 00:40:46;;;;;;;;;;;;;;;26.24;23.22;100676.97;5077689;28;975;-36
2021/03/11 00:43:14;;;;;;;;;;;;;;;26.15;23.74;100672.66;5076041;28;753;-37
2021/03/11 00:45:39;;;;;;;;;;;;;;;27.09;22.13;100672.63;5075668;28;908;-37
2021/03/11 00:48:04;;;;;;;;;;;;;;;27.26;22.06;100675.97;5076189;28;722;-37
2021/03/11 00:50:30;;;;;;;;;;;;;;;27.37;22.15;100682.78;5057771;28;808;-36
2021/03/11 00:52:55;;;;;;;;;;;;;;;27.50;21.77;100685.69;5077853;28;756;-37
2021/03/11 00:55:20;;;;;;;;;;;;;;;27.54;21.69;100683.44;5076681;28;1971;-37
2021/03/11 00:57:46;;;;;;;;;;;;;;;27.67;21.52;100677.38;5100085;28;783;-37
2021/03/11 01:00:12;;;;;;;;;;;;;;;26.27;23.09;100673.94;5099824;28;752;-36
2021/03/11 01:02:37;;;;;;;;;;;;;;;26.24;23.22;100676.97;5081994;28;1159;-37
2021/03/11 01:05:03;;;;;;;;;;;;;;;26.47;23.02;100676.19;5100008;28;803;-36
2021/03/11 01:07:28;;;;;;;;;;;;;;;26.71;22.45;100678.88;5099861;28;716;-37
2021/03/11 01:09:53;;;;;;;;;;;;;;;26.67;22.85;100673.00;5088265;28;950;-36
2021/03/11 01:12:19;;;;;;;;;;;;;;;26.60;22.92;100682.81;5079178;28;819;-37
2021/03/11 01:14:44;;;;;;;;;;;;;;;27.11;22.07;100667.91;5079185;28;1961;-37
2021/03/11 01:17:09;;;;;;;;;;;;;;;27.26;21.83;100671.41;5079015;28;812;-37
2021/03/11 01:19:35;;;;;;;;;;;;;;;26.17;23.06;100674.16;5079435;28;811;-37
2021/03/11 01:22:00;;;;;;;;;;;;;;;26.10;23.25;100669.66;5079201;28;764;-37
2021/03/11 01:24:26;;;;;;;;;;;;;;;26.60;22.60;100659.38;5086939;28;948;-37
2021/03/11 01:26:51;;;;;;;;;;;;;;;26.81;22.36;100665.94;5099440;28;739;-37
2021/03/11 01:29:16;;;;;;;;;;;;;;;26.64;22.25;100671.47;5099327;28;751;-37
2021/03/11 01:31:42;;;;;;;;;;;;;;;26.68;22.45;100668.41;5099012;28;1090;-37
2021/03/11 01:34:07;;;;;;;;;;;;;;;27.05;22.05;100677.56;5094032;28;1922;-37
2021/03/11 01:36:33;;;;;;;;;;;;;;;27.24;21.64;100667.25;5060695;28;1311;-37
2021/03/11 01:38:59;;;;;;;;;;;;;;;26.10;22.96;100678.59;5078748;28;1006;-37
2021/03/11 01:41:24;;;;;;;;;;;;;;;25.99;23.11;100679.81;5079427;28;738;-37
2021/03/11 01:43:49;;;;;;;;;;;;;;;26.22;22.88;100676.34;5078799;28;854;-36
2021/03/11 01:46:15;;;;;;;;;;;;;;;26.60;22.74;100685.53;5078711;28;897;-36
2021/03/11 01:48:40;;;;;;;;;;;;;;;26.65;22.64;100700.16;5079064;28;847;-36
2021/03/11 01:51:05;;;;;;;;;;;;;;;26.63;22.62;100701.34;5078988;28;770;-36
2021/03/11 01:53:30;;;;;;;;;;;;;;;27.22;21.99;100704.38;5078787;28;834;-36
2021/03/11 01:55:56;;;;;;;;;;;;;;;27.31;21.97;100697.88;5080249;28;1964;-36
2021/03/11 01:58:21;;;;;;;;;;;;;;;27.14;21.82;100699.91;5099144;28;838;-36
2021/03/11 02:00:47;;;;;;;;;;;;;;;26.07;23.05;100695.13;5098975;28;807;-36
2021/03/11 02:03:12;;;;;;;;;;;;;;;25.92;23.36;100695.03;5098788;28;759;-36
2021/03/11 02:05:37;;;;;;;;;;;;;;;26.37;23.09;100707.94;5098192;28;747;-36
2021/03/11 02:08:03;;;;;;;;;;;;;;;26.53;22.88;100702.44;5098541;28;716;-37
2021/03/11 02:10:28;;;;;;;;;;;;;;;26.67;22.38;100709.91;5082460;28;938;-36
2021/03/11 02:12:56;;;;;;;;;;;;;;;26.67;22.61;100702.66;5060524;28;788;-36
2021/03/11 02:15:23;;;;;;;;;;;;;;;27.10;21.95;100717.50;5078027;28;1905;-35
2021/03/11 02:17:51;;;;;;;;;;;;;;;26.48;22.58;100715.63;5078468;28;783;-36
2021/03/11 02:20:21;;;;;;;;;;;;;;;25.76;23.71;100696.78;5060440;28;850;-36
2021/03/11 02:23:04;;;;;;;;;;;;;;;26.20;23.14;100713.41;5060372;28;748;-36
2021/03/11 02:25:32;;;;;;;;;;;;;;;26.56;22.54;100708.50;5075948;28;944;-37
2021/03/11 02:28:03;;;;;;;;;;;;;;;26.49;22.88;100719.16;5098324;28;815;-36
2021/03/11 02:30:28;;;;;;;;;;;;;;;26.07;23.30;100726.63;5080257;28;1056;-37
2021/03/11 02:32:54;;;;;;;;;;;;;;;26.87;22.25;100713.81;5098194;28;775;-37
2021/03/11 02:35:19;;;;;;;;;;;;;;;27.11;22.07;100724.59;5064494;28;1914;-37
2021/03/11 02:37:48;;;;;;;;;;;;;;;27.17;21.79;100723.84;5077796;28;795;-36
2021/03/11 02:40:21;;;;;;;;;;;;;;;26.08;23.25;100720.22;5060074;28;940;-36
2021/03/11 02:42:47;;;;;;;;;;;;;;;26.16;23.26;100726.41;5078048;28;764;-36
2021/03/11 02:45:15;;;;;;;;;;;;;;;26.59;22.51;100730.53;5059794;28;827;-36
2021/03/11 02:47:40;;;;;;;;;;;;;;;26.78;22.23;100739.16;5059863;28;740;-36
2021/03/11 02:50:05;;;;;;;;;;;;;;;26.70;22.41;100742.78;5077841;28;804;-37
2021/03/11 02:52:31;;;;;;;;;;;;;;;26.85;22.44;100750.94;5077292;28;839;-37
2021/03/11 02:54:56;;;;;;;;;;;;;;;27.10;21.90;100755.28;5071282;28;1902;-36
2021/03/11 02:57:21;;;;;;;;;;;;;;;27.21;21.88;100765.66;5098118;28;724;-36
2021/03/11 02:59:47;;;;;;;;;;;;;;;26.35;22.72;100769.31;5079725;28;732;-37
2021/03/11 03:02:12;;;;;;;;;;;;;;;25.78;23.41;100775.59;5079610;28;1102;-37
2021/03/11 03:04:38;;;;;;;;;;;;;;;26.26;23.12;100774.72;5079443;28;1392;-37
2021/03/11 03:07:03;;;;;;;;;;;;;;;26.59;22.77;100778.28;5079122;28;803;-37
2021/03/11 03:09:28;;;;;;;;;;;;;;;26.71;22.41;100782.22;5089751;28;1072;-37
2021/03/11 03:11:57;;;;;;;;;;;;;;;26.11;23.42;100788.09;5059606;28;822;-37
2021/03/11 03:14:22;;;;;;;;;;;;;;;27.00;22.06;100786.06;5077133;28;1905;-37
2021/03/11 03:16:47;;;;;;;;;;;;;;;27.16;22.05;100802.34;5076850;28;851;-37
2021/03/11 03:19:13;;;;;;;;;;;;;;;27.17;22.04;100799.47;5077319;28;759;-37
2021/03/11 03:21:42;;;;;;;;;;;;;;;27.34;21.84;100797.44;5058765;28;772;-37
2021/03/11 03:24:09;;;;;;;;;;;;;;;27.41;21.84;100799.41;5082050;28;948;-37
2021/03/11 03:26:34;;;;;;;;;;;;;;;27.45;21.83;100798.00;5097292;28;813;-37
2021/03/11 03:28:59;;;;;;;;;;;;;;;27.47;21.60;100806.78;5096933;28;870;-37
2021/03/11 03:31:25;;;;;;;;;;;;;;;26.25;23.15;100810.78;5097298;28;1309;-36
2021/03/11 03:33:50;;;;;;;;;;;;;;;26.03;23.35;100813.25;5076025;28;1166;-36
2021/03/11 03:36:15;;;;;;;;;;;;;;;26.56;22.81;100814.53;5076242;28;1909;-36
2021/03/11 03:38:41;;;;;;;;;;;;;;;26.58;22.57;100831.38;5078086;28;999;-36
2021/03/11 03:41:06;;;;;;;;;;;;;;;26.41;23.06;100825.22;5097066;28;783;-36
2021/03/11 03:43:32;;;;;;;;;;;;;;;26.60;22.71;100828.50;5078614;28;832;-36
2021/03/11 03:46:03;;;;;;;;;;;;;;;27.17;21.93;100831.88;5096979;28;739;-36
2021/03/11 03:48:31;;;;;;;;;;;;;;;26.43;22.56;100838.53;5097017;28;790;-36
2021/03/11 03:50:57;;;;;;;;;;;;;;;25.81;23.45;100836.38;5096559;28;810;-36
2021/03/11 03:53:24;;;;;;;;;;;;;;;25.75;23.77;100828.97;5078964;28;755;-36
2021/03/11 03:55:50;;;;;;;;;;;;;;;26.25;23.25;100829.66;5059003;28;1910;-36
2021/03/11 03:58:15;;;;;;;;;;;;;;;26.43;22.90;100849.31;5076557;28;827;-36
2021/03/11 04:00:41;;;;;;;;;;;;;;;25.88;23.55;100850.00;5076977;28;807;-36
2021/03/11 04:03:06;;;;;;;;;;;;;;;26.86;22.48;100844.34;5076433;28;831;-36
2021/03/11 04:05:31;;;;;;;;;;;;;;;27.17;21.82;100856.16;5058235;28;819;-36
2021/03/11 04:07:56;;;;;;;;;;;;;;;27.29;21.68;100858.44;5058565;28;815;-36
2021/03/11 04:10:22;;;;;;;;;;;;;;;27.41;21.62;100858.84;5091339;28;944;-37
2021/03/11 04:12:47;;;;;;;;;;;;;;;27.44;21.46;100869.28;5096388;28;842;-37
2021/03/11 04:15:12;;;;;;;;;;;;;;;27.50;21.47;100874.81;5096550;28;1963;-36
2021/03/11 04:17:37;;;;;;;;;;;;;;;27.50;21.62;100868.53;5078358;28;863;-42
2021/03/11 04:20:03;;;;;;;;;;;;;;;27.48;21.56;100876.84;5077931;28;883;-39
2021/03/11 04:22:29;;;;;;;;;;;;;;;26.22;23.23;100877.72;5097030;28;783;-40
2021/03/11 04:24:54;;;;;;;;;;;;;;;25.67;23.88;100881.03;5084753;28;994;-40
2021/03/11 04:27:19;;;;;;;;;;;;;;;26.48;23.13;100869.38;5076962;28;863;-38
2021/03/11 04:29:45;;;;;;;;;;;;;;;25.72;24.27;100875.97;5080306;28;948;-39
2021/03/11 04:32:10;;;;;;;;;;;;;;;24.45;21.15;100878.59;5062778;28;755;-40
2021/03/11 04:34:35;;;;;;;;;;;;;;;24.81;19.28;100880.22;5089523;28;1976;-39
2021/03/11 04:37:01;;;;;;;;;;;;;;;25.37;18.58;100889.59;5100702;28;831;-39
2021/03/11 04:39:26;;;;;;;;;;;;;;;24.77;18.03;100889.66;5092739;28;1020;-37
2021/03/11 04:41:52;;;;;;;;;;;;;;;22.84;18.23;100885.72;5079930;28;757;-41
2021/03/11 04:44:17;;;;;;;;;;;;;;;22.04;19.54;100892.41;5080047;28;776;-43
2021/03/11 04:46:43;;;;;;;;;;;;;;;17.73;23.30;100877.47;5062282;28;856;-38
2021/03/11 04:49:08;;;;;;;;;;;;;;;22.37;19.52;100890.19;5079868;28;787;-39
2021/03/11 04:51:33;;;;;;;;;;;;;;;22.96;19.87;100891.72;5079967;28;859;-39
2021/03/11 04:53:59;;;;;;;;;;;;;;;24.78;19.03;100912.84;5065008;28;1958;-40
2021/03/11 04:56:27;;;;;;;;;;;;;;;25.28;19.25;100917.50;5078957;28;1346;-40
2021/03/11 05:01:58;;;;;;;;;;;;;;;25.96;18.91;100925.44;5098652;28;1203;-35
2021/03/11 05:04:24;;;;;;;;;;;;;;;26.13;18.69;100931.66;5081798;28;751;-35
2021/03/11 05:06:49;;;;;;;;;;;;;;;26.34;18.80;100932.16;5100110;28;754;-35
2021/03/11 05:09:15;;;;;;;;;;;;;;;26.50;18.76;100934.78;5094183;28;962;-35
2021/03/11 05:11:43;;;;;;;;;;;;;;;26.68;18.95;100927.44;5079124;28;569;-35
2021/03/11 05:14:08;;;;;;;;;;;;;;;26.73;19.35;100928.63;5079639;28;1972;-40
2021/03/11 05:16:33;;;;;;;;;;;;;;;26.95;19.17;100928.00;5079491;28;747;-43
2021/03/11 05:18:59;;;;;;;;;;;;;;;27.02;19.21;100929.84;5079160;28;807;-42
2021/03/11 05:21:24;;;;;;;;;;;;;;;27.16;19.37;100943.59;5079531;28;779;-41
2021/03/11 05:23:50;;;;;;;;;;;;;;;27.46;19.09;100937.50;5060704;28;1005;-39
2021/03/11 05:26:16;;;;;;;;;;;;;;;27.73;18.82;100946.91;5078951;28;748;-42
2021/03/11 05:28:41;;;;;;;;;;;;;;;28.03;19.02;100946.13;5079484;28;790;-41
2021/03/11 05:31:06;;;;;;;;;;;;;;;28.18;18.96;100956.09;5079216;28;1107;-37
2021/03/11 05:33:32;;;;;;;;;;;;;;;28.35;18.80;100957.66;5079244;28;1147;-39
2021/03/11 05:35:57;;;;;;;;;;;;;;;28.60;18.46;100957.38;5099360;28;1905;-45
2021/03/11 05:38:22;;;;;;;;;;;;;;;28.73;18.38;100978.34;5099269;28;763;-38
2021/03/11 05:40:51;;;;;;;;;;;;;;;28.84;18.40;100977.00;5079903;28;986;-37
2021/03/11 05:43:18;;;;;;;;;;;;;;;29.03;18.55;100973.94;5079260;28;779;-39
2021/03/11 05:45:44;;;;;;;;;;;;;;;29.18;18.47;100974.72;5078803;28;739;-38
2021/03/11 05:48:09;;;;;;;;;;;;;;;29.28;18.31;100974.41;5060905;28;755;-38
2021/03/11 05:50:35;;;;;;;;;;;;;;;29.44;18.26;100975.19;5061573;28;1030;-38
2021/03/11 05:53:02;;;;;;;;;;;;;;;29.52;18.23;100990.50;5061366;28;768;-38
2021/03/11 05:55:27;;;;;;;;;;;;;;;29.62;18.28;100998.31;5095210;28;1991;-42
2021/03/11 05:57:53;;;;;;;;;;;;;;;29.65;18.04;101001.50;5099262;28;811;-39
2021/03/11 06:00:19;;;;;;;;;;;;;;;29.77;18.33;101000.97;5099020;28;792;-42
2021/03/11 06:02:45;;;;;;;;;;;;;;;29.85;17.99;101003.53;5099326;28;763;-37
2021/03/11 06:05:19;;;;;;;;;;;;;;;29.88;18.32;101011.28;5098987;28;900;-43
2021/03/11 06:07:45;;;;;;;;;;;;;;;29.82;18.35;101029.19;5080797;28;1268;-43
2021/03/11 06:10:10;;;;;;;;;;;;;;;29.67;18.59;101025.69;5085230;28;966;-43
2021/03/11 06:12:35;;;;;;;;;;;;;;;29.32;19.11;101027.19;5078966;28;750;-39
2021/03/11 06:15:07;;;;;;;;;;;;;;;29.73;18.77;101046.59;5060757;28;1897;-36
2021/03/11 06:17:32;;;;;;;;;;;;;;;29.84;18.90;101047.97;5078806;28;791;-39
2021/03/11 06:19:57;;;;;;;;;;;;;;;29.33;19.39;101047.84;5078900;28;763;-34
2021/03/11 06:22:23;;;;;;;;;;;;;;;29.05;19.87;101053.13;5079024;28;798;-35
2021/03/11 06:24:48;;;;;;;;;;;;;;;29.56;19.35;101056.84;5089162;28;955;-35
2021/03/11 06:27:14;;;;;;;;;;;;;;;29.53;19.53;101063.47;5080240;28;958;-39
2021/03/11 06:29:39;;;;;;;;;;;;;;;29.92;19.16;101069.53;5098673;28;1244;-37
2021/03/11 06:32:05;;;;;;;;;;;;;;;30.13;19.18;101081.38;5098413;28;866;-42
2021/03/11 06:34:35;;;;;;;;;;;;;;;30.26;19.01;101071.72;5089696;28;1913;-34
2021/03/11 06:37:00;;;;;;;;;;;;;;;30.48;19.10;101079.81;5078229;28;530;-37
2021/03/11 06:39:26;;;;;;;;;;;;;;;30.57;19.11;101077.75;5077770;28;983;-33
2021/03/11 06:41:52;;;;;;;;;;;;;;;30.66;19.49;101085.56;5078121;28;821;-42
2021/03/11 06:44:17;;;;;;;;;;;;;;;30.59;19.21;101092.84;5078279;28;798;-39
2021/03/11 06:46:55;;;;;;;;;;;;;;;30.36;19.42;101101.22;5077929;28;740;-34
2021/03/11 06:49:20;;;;;;;;;;;;;;;30.24;20.16;101109.91;5077991;28;787;-33
2021/03/11 06:51:46;;;;;;;;;;;;;;;30.41;20.04;101121.28;5077754;28;911;-47
2021/03/11 06:54:11;;;;;;;;;;;;;;;30.72;19.96;101124.66;5083163;28;1901;-39
2021/03/11 06:56:40;;;;;;;;;;;;;;;30.64;20.17;101128.38;5098244;28;758;-39
2021/03/11 06:59:06;;;;;;;;;;;;;;;30.78;20.13;101132.00;5080111;28;774;-33
2021/03/11 07:01:32;;;;;;;;;;;;;;;30.79;20.34;101141.00;5097984;28;719;-33
2021/03/11 07:03:59;;;;;;;;;;;;;;;30.67;19.88;101138.00;5098399;28;786;-33
2021/03/11 07:06:28;;;;;;;;;;;;;;;30.34;20.42;101142.13;5098078;28;829;-33
2021/03/11 07:08:54;;;;;;;;;;;;;;;29.67;21.48;101139.56;5094699;28;958;-33
2021/03/11 07:11:19;;;;;;;;;;;;;;;30.52;20.24;101148.94;5077782;28;827;-33
2021/03/11 07:13:45;;;;;;;;;;;;;;;30.59;20.09;101158.00;5077410;28;832;-34
2021/03/11 07:16:13;;;;;;;;;;;;;;;30.72;20.10;101157.25;5077256;28;1973;-34
2021/03/11 07:18:40;;;;;;;;;;;;;;;30.85;19.95;101166.53;5077612;28;818;-34
2021/03/11 07:21:05;;;;;;;;;;;;;;;30.71;19.86;101161.00;5077912;28;795;-35
2021/03/11 07:23:31;;;;;;;;;;;;;;;30.63;19.87;101163.88;5077309;28;735;-37
2021/03/11 07:25:56;;;;;;;;;;;;;;;29.32;21.74;101157.25;5097634;28;979;-35
2021/03/11 07:28:28;;;;;;;;;;;;;;;30.57;19.99;101157.34;5097362;28;1002;-35
2021/03/11 07:30:54;;;;;;;;;;;;;;;30.78;19.62;101159.16;5097408;28;1174;-35
2021/03/11 07:33:19;;;;;;;;;;;;;;;30.73;19.68;101163.53;5097700;28;727;-35
2021/03/11 07:35:45;;;;;;;;;;;;;;;30.75;19.63;101170.44;5078458;28;1981;-35
2021/03/11 07:38:12;;;;;;;;;;;;;;;30.89;19.72;101170.56;5059375;28;889;-35
2021/03/11 07:40:37;;;;;;;;;;;;;;;30.90;19.60;101183.94;5094390;28;991;-35
2021/03/11 07:43:02;;;;;;;;;;;;;;;30.85;19.48;101185.56;5078933;28;1034;-35
2021/03/11 07:45:29;;;;;;;;;;;;;;;30.73;19.62;101185.25;5096956;28;980;-35
2021/03/11 07:47:54;;;;;;;;;;;;;;;30.30;20.24;101186.97;5097190;28;699;-35
2021/03/11 07:50:22;;;;;;;;;;;;;;;30.65;19.73;101184.34;5097650;28;1062;-34
2021/03/11 07:52:47;;;;;;;;;;;;;;;30.77;19.63;101190.09;5097446;28;802;-35
2021/03/11 07:55:13;;;;;;;;;;;;;;;30.88;19.39;101196.88;5082910;28;1970;-35
2021/03/11 07:57:42;;;;;;;;;;;;;;;30.84;19.40;101208.34;5076801;28;755;-35
2021/03/11 08:00:08;;;;;;;;;;;;;;;30.66;19.45;101215.06;5076981;28;759;-47
2021/03/11 08:02:33;;;;;;;;;;;;;;;30.66;19.90;101221.31;5076009;28;823;-34
2021/03/11 08:05:02;;;;;;;;;;;;;;;30.78;19.94;101223.53;5058643;28;823;-32
2021/03/11 08:07:27;;;;;;;;;;;;;;;30.87;19.64;101237.81;5077009;28;776;-33
2021/03/11 08:09:53;;;;;;;;;;;;;;;30.81;19.71;101219.59;5087940;28;959;-33
2021/03/11 08:12:37;;;;;;;;;;;;;;;30.73;19.69;101224.09;5096897;28;899;-32
2021/03/11 08:15:26;;;;;;;;;;;;;;;30.73;19.86;101221.38;5096874;28;1910;-33
2021/03/11 08:17:51;;;;;;;;;;;;;;;30.84;19.84;101230.91;5096323;28;1211;-33
2021/03/11 08:20:19;;;;;;;;;;;;;;;31.03;19.51;101229.38;5097210;28;799;-33
2021/03/11 08:22:55;;;;;;;;;;;;;;;30.95;19.45;101232.22;5096974;28;763;-33
2021/03/11 08:25:23;;;;;;;;;;;;;;;30.84;19.50;101241.78;5081390;28;1013;-32
2021/03/11 08:27:49;;;;;;;;;;;;;;;30.65;19.65;101225.06;5076647;28;892;-33
2021/03/11 08:30:34;;;;;;;;;;;;;;;30.95;19.59;101240.38;5076309;28;1215;-33
2021/03/11 08:33:00;;;;;;;;;;;;;;;31.06;19.35;101247.16;5065648;28;1266;-33
2021/03/11 08:35:28;;;;;;;;;;;;;;;30.92;19.20;101238.06;5074928;28;1974;-33
2021/03/11 08:37:56;;;;;;;;;;;;;;;30.88;19.32;101242.22;5096777;28;723;-33
2021/03/11 08:40:42;;;;;;;;;;;;;;;30.83;19.25;101239.25;5081066;28;942;-33
2021/03/11 08:43:07;;;;;;;;;;;;;;;30.78;19.60;101237.09;5076544;28;820;-33
2021/03/11 08:45:36;;;;;;;;;;;;;;;30.97;19.48;101245.63;5076028;28;1026;-33
2021/03/11 08:48:14;;;;;;;;;;;;;;;31.08;19.34;101253.22;5076377;28;770;-34
2021/03/11 08:50:40;;;;;;;;;;;;;;;30.98;19.22;101245.41;5076581;28;783;-34
2021/03/11 08:53:05;;;;;;;;;;;;;;;30.91;19.30;101249.97;5076282;28;870;-32
2021/03/11 08:55:34;;;;;;;;;;;;;;;30.91;19.29;101244.53;5076051;28;1910;-38
2021/03/11 08:58:00;;;;;;;;;;;;;;;30.95;19.30;101258.56;5076433;28;838;-42
2021/03/11 09:00:57;;;;;;;;;;;;;;;30.47;18.42;101257.28;5076231;28;833;-42
2021/03/11 09:03:42;;;;;;;;;;;;;;;30.00;17.41;101235.88;5042519;28;1201;-42
2021/03/11 09:06:07;;;;;;;;;;;;;;;30.46;17.17;101253.75;5076253;28;846;-32
2021/03/11 09:08:46;;;;;;;;;;;;;;;30.49;17.66;101258.78;5076242;28;1013;-32
2021/03/11 09:11:15;;;;;;;;;;;;;;;30.35;17.54;101254.22;5096602;28;731;-42
2021/03/11 09:13:41;;;;;;;;;;;;;;;29.84;18.18;101264.06;5097848;28;814;-32
2021/03/11 09:16:06;;;;;;;;;;;;;;;29.56;18.06;101268.28;5100119;28;1909;-33
2021/03/11 09:18:31;;;;;;;;;;;;;;;29.40;18.66;101259.28;5100243;28;763;-34
2021/03/11 09:20:58;;;;;;;;;;;;;;;30.05;18.39;101266.84;5099620;28;846;-33
2021/03/11 09:23:56;;;;;;;;;;;;;;;30.30;18.08;101269.22;5100410;28;822;-34
2021/03/11 09:26:25;;;;;;;;;;;;;;;30.61;17.75;101272.69;5045758;28;1305;-34
2021/03/11 09:28:50;;;;;;;;;;;;;;;30.64;18.08;101272.28;5079881;28;750;-34
2021/03/11 09:31:22;;;;;;;;;;;;;;;30.66;17.83;101280.22;5078434;28;1080;-34
2021/03/11 09:33:48;;;;;;;;;;;;;;;30.70;18.08;101283.41;5082141;28;1100;-34
2021/03/11 09:36:15;;;;;;;;;;;;;;;30.76;18.23;101296.19;5099656;28;1918;-34
2021/03/11 09:38:40;;;;;;;;;;;;;;;30.81;18.16;101285.63;5098352;28;998;-33
2021/03/11 09:41:06;;;;;;;;;;;;;;;30.74;18.26;101282.81;5061328;28;901;-34
2021/03/11 09:43:35;;;;;;;;;;;;;;;30.28;17.81;101284.84;5079411;28;787;-43
2021/03/11 09:46:07;;;;;;;;;;;;;;;30.00;18.74;101292.84;5079078;28;818;-37
2021/03/11 09:48:34;;;;;;;;;;;;;;;30.65;18.58;101295.69;5079444;28;779;-35
2021/03/11 09:51:06;;;;;;;;;;;;;;;30.85;18.48;101302.34;5078978;28;775;-34
2021/03/11 09:53:37;;;;;;;;;;;;;;;30.86;18.66;101301.31;5079294;28;791;-36
2021/03/11 09:56:02;;;;;;;;;;;;;;;30.84;18.71;101296.09;5078808;28;1902;-35
2021/03/11 09:58:28;;;;;;;;;;;;;;;30.84;18.95;101312.38;5085905;28;1047;-50
2021/03/11 10:00:53;;;;;;;;;;;;;;;30.37;19.97;101309.16;5088017;28;1395;-49
2021/03/11 10:03:26;;;;;;;;;;;;;;;30.90;19.57;101317.03;5087510;28;1166;-50
2021/03/11 10:05:59;;;;;;;;;;;;;;;30.74;16.16;101315.41;5078892;28;996;-34
2021/03/11 10:08:25;;;;;;;;;;;;;;;30.08;18.79;101319.03;5077986;28;1178;-39
2021/03/11 10:11:17;;;;;;;;;;;;;;;30.72;18.57;101319.34;5078621;28;932;-33
2021/03/11 10:13:49;;;;;;;;;;;;;;;30.63;18.19;101315.94;5075521;28;1888;-33
2021/03/11 10:16:15;;;;;;;;;;;;;;;30.71;18.56;101323.94;5078185;28;1902;-35
2021/03/11 10:19:00;;;;;;;;;;;;;;;30.29;19.25;101321.00;5078641;28;854;-35
2021/03/11 10:21:25;;;;;;;;;;;;;;;30.79;18.78;101320.25;5078647;28;1522;-36
2021/03/11 10:23:51;;;;;;;;;;;;;;;30.96;18.47;101322.72;5080978;28;1006;-33
2021/03/11 10:26:26;;;;;;;;;;;;;;;30.73;18.52;101327.28;5094350;28;1245;-48
2021/03/11 10:28:52;;;;;;;;;;;;;;;30.17;19.44;101332.31;5088634;28;1221;-39
2021/03/11 10:31:21;;;;;;;;;;;;;;;30.57;19.60;101336.53;5086287;28;1362;-33
2021/03/11 10:33:46;;;;;;;;;;;;;;;30.94;19.18;101332.94;5088531;28;1248;-33
2021/03/11 10:36:16;;;;;;;;;;;;;;;31.06;19.23;101344.97;5067898;28;1910;-39
2021/03/11 10:38:41;;;;;;;;;;;;;;;31.03;19.47;101342.66;5085457;28;1147;-41
2021/03/11 10:41:16;;;;;;;;;;;;;;;30.98;19.88;101339.69;5088606;28;1225;-39
2021/03/11 10:43:42;;;;;;;;;;;;;;;31.03;20.00;101334.50;5086471;28;1131;-40
2021/03/11 10:46:07;;;;;;;;;;;;;;;31.01;20.02;101331.13;5086658;28;1182;-42
2021/03/11 10:48:49;;;;;;;;;;;;;;;30.98;20.17;101342.41;5088247;28;1194;-34
2021/03/11 10:51:21;;;;;;;;;;;;;;;30.18;17.26;101335.84;5087856;28;1147;-44
2021/03/11 10:53:46;;;;;;;;;;;;;;;30.23;18.08;101347.00;5087037;28;1111;-41
2021/03/11 10:56:12;;;;;;;;;;;;;;;30.41;18.05;101343.88;5085914;28;1909;-41
2021/03/11 10:58:37;;;;;;;;;;;;;;;30.39;18.33;101332.38;5095073;28;1182;-33
2021/03/11 11:01:17;;;;;;;;;;;;;;;29.40;19.43;101337.03;5098309;28;869;-33
2021/03/11 11:03:43;;;;;;;;;;;;;;;30.48;18.71;101334.97;5098364;28;767;-33
2021/03/11 11:06:08;;;;;;;;;;;;;;;30.67;18.24;101345.22;5098271;28;813;-36
2021/03/11 11:08:34;;;;;;;;;;;;;;;29.74;19.59;101343.84;5097592;28;958;-36
2021/03/11 11:11:01;;;;;;;;;;;;;;;30.17;19.11;101334.16;5077635;28;770;-32
2021/03/11 11:13:27;;;;;;;;;;;;;;;30.73;18.29;101342.75;5077415;28;823;-33
2021/03/11 11:15:52;;;;;;;;;;;;;;;30.83;18.30;101340.56;5077501;28;1964;-34
2021/03/11 11:18:17;;;;;;;;;;;;;;;30.57;18.91;101338.41;5058649;28;851;-33
2021/03/11 11:20:42;;;;;;;;;;;;;;;30.88;18.43;101337.28;5077558;28;778;-33
2021/03/11 11:23:11;;;;;;;;;;;;;;;30.86;18.76;101336.63;5077503;28;802;-33
2021/03/11 11:25:36;;;;;;;;;;;;;;;30.85;18.57;101334.94;5094623;28;1018;-33
2021/03/11 11:28:01;;;;;;;;;;;;;;;30.45;19.04;101322.63;5097758;28;759;-33
2021/03/11 11:30:27;;;;;;;;;;;;;;;30.86;18.60;101334.78;5097597;28;1100;-33
2021/03/11 11:32:53;;;;;;;;;;;;;;;30.98;18.40;101342.41;5097795;28;759;-32
2021/03/11 11:35:18;;;;;;;;;;;;;;;31.00;18.39;101343.88;5082351;28;1992;-33
2021/03/11 11:37:44;;;;;;;;;;;;;;;30.99;18.40;101341.34;5077161;28;732;-33
2021/03/11 11:40:09;;;;;;;;;;;;;;;30.89;18.63;101337.09;5090376;28;1010;-32
2021/03/11 11:42:35;;;;;;;;;;;;;;;30.86;18.77;101337.50;5097793;28;742;-32
2021/03/11 11:45:01;;;;;;;;;;;;;;;30.94;18.71;101332.94;5097655;28;775;-44
2021/03/11 11:47:26;;;;;;;;;;;;;;;31.01;18.49;101345.53;5097201;28;806;-33
2021/03/11 11:49:51;;;;;;;;;;;;;;;30.95;18.40;101346.31;5097419;28;749;-32
2021/03/11 11:52:17;;;;;;;;;;;;;;;30.95;18.48;101346.31;5097283;28;810;-33
2021/03/11 11:54:42;;;;;;;;;;;;;;;30.98;18.53;101353.25;5087025;28;1906;-33
2021/03/11 11:57:07;;;;;;;;;;;;;;;31.06;18.43;101350.41;5077062;28;819;-33
2021/03/11 11:59:33;;;;;;;;;;;;;;;31.03;18.40;101358.97;5076907;28;740;-33
2021/03/11 12:01:58;;;;;;;;;;;;;;;30.88;18.46;101353.59;5076625;28;771;-32
2021/03/11 12:04:24;;;;;;;;;;;;;;;30.76;18.60;101361.38;5076800;28;796;-32
2021/03/11 12:06:49;;;;;;;;;;;;;;;30.98;18.25;101354.09;5077164;28;835;-32
2021/03/11 12:09:14;;;;;;;;;;;;;;;31.29;18.22;101349.34;5082573;28;995;-32
2021/03/11 12:11:40;;;;;;;;;;;;;;;31.19;17.97;101363.25;5097372;28;727;-33
2021/03/11 12:14:05;;;;;;;;;;;;;;;30.98;18.38;101350.53;5096923;28;885;-32
2021/03/11 12:16:31;;;;;;;;;;;;;;;30.54;18.77;101354.06;5096869;28;1890;-46
2021/03/11 12:18:56;;;;;;;;;;;;;;;30.85;18.74;101354.81;5078864;28;875;-32
2021/03/11 12:21:22;;;;;;;;;;;;;;;30.99;18.36;101352.22;5096770;28;840;-32
2021/03/11 12:23:47;;;;;;;;;;;;;;;30.98;18.31;101345.94;5094824;28;998;-32
2021/03/11 12:26:14;;;;;;;;;;;;;;;31.10;18.03;101345.41;5076703;28;735;-32
2021/03/11 12:28:39;;;;;;;;;;;;;;;30.98;18.10;101351.38;5076200;28;1546;-32
2021/03/11 12:31:05;;;;;;;;;;;;;;;30.91;18.43;101351.31;5076570;28;1081;-32
2021/03/11 12:33:30;;;;;;;;;;;;;;;30.90;17.18;101348.78;5076477;28;1124;-34
2021/03/11 12:35:55;;;;;;;;;;;;;;;30.80;16.29;101351.81;5096489;28;1910;-35
2021/03/11 12:38:21;;;;;;;;;;;;;;;30.52;17.61;101352.56;5096930;28;818;-31
2021/03/11 12:40:46;;;;;;;;;;;;;;;31.02;17.24;101357.25;5077782;28;954;-32
2021/03/11 12:43:12;;;;;;;;;;;;;;;31.18;16.93;101360.75;5076119;28;889;-32
2021/03/11 12:45:37;;;;;;;;;;;;;;;30.96;17.14;101366.19;5076477;28;783;-32
2021/03/11 12:48:03;;;;;;;;;;;;;;;30.85;17.58;101367.53;5077001;28;818;-32
2021/03/11 12:50:29;;;;;;;;;;;;;;;30.97;17.32;101374.16;5080287;28;763;-32
2021/03/11 12:52:54;;;;;;;;;;;;;;;30.95;17.36;101375.38;5080390;28;898;-35
2021/03/11 12:55:19;;;;;;;;;;;;;;;31.16;17.21;101372.63;5094895;28;1906;-31